This is the latest recevied weather packets stored in our database for station/object N0LTM. If no packets are shown the sender has not sent any weather packets the latest 10 day(s).
| Time | Temp. | Humidity | Pressure | Rain* | Wind** | Luminosity | Snow |
|---|---|---|---|---|---|---|---|
| 1777930277 | 25.56° C | 27% | 998.3 hPa | 0 mm | - | - | - |
| 1777929355 | 25.56° C | 25% | 998.3 hPa | 0 mm | - | - | - |
| 1777925160 | 27.22° C | 22% | 999 hPa | 0 mm | - | - | - |
| 1777921856 | 27.22° C | 24% | 999.8 hPa | 0 mm | - | - | - |
| 1777920656 | 26.11° C | 23% | 999.8 hPa | 0 mm | - | - | - |
| 1777919758 | 26.11° C | 27% | 1000 hPa | 0 mm | - | - | - |
| 1777914957 | 24.44° C | 30% | 1000.9 hPa | 0 mm | - | - | - |
| 1777911054 | 23.33° C | 27% | 1001.6 hPa | 0 mm | - | - | - |
| 1777910754 | 23.33° C | 30% | 1001.6 hPa | 0 mm | - | - | - |
| 1777908052 | 21.11° C | 37% | 1002.2 hPa | 0 mm | - | - | - |
| 1777907757 | 21.11° C | 38% | 1002.3 hPa | 0 mm | - | - | - |
| 1777907452 | 20.56° C | 36% | 1002.5 hPa | 0 mm | - | - | - |
| 1777906854 | 20° C | 37% | 1002.5 hPa | 0 mm | - | - | - |
| 1777906253 | 20° C | 39% | 1002.5 hPa | 0 mm | - | - | - |
| 1777904160 | 17.78° C | 44% | 1002.9 hPa | 0 mm | - | - | - |
| 1777902052 | 16.67° C | 49% | 1003.3 hPa | 0 mm | - | - | - |
| 1777899054 | 12.78° C | 60% | 1003.7 hPa | 0 mm | - | - | - |
| 1777897857 | 11.67° C | 63% | 1003.6 hPa | 0 mm | - | - | - |
| 1777896355 | 10° C | 68% | 1003.6 hPa | 0 mm | - | - | - |
| 1777895159 | 10° C | 67% | 1003.7 hPa | 0 mm | - | - | - |
| 1777894261 | 9.44° C | 68% | 1003.6 hPa | 0 mm | - | - | - |
| 1777893054 | 8.89° C | 68% | 1003.6 hPa | 0 mm | - | - | - |
| 1777891252 | 8.89° C | 69% | 1003.7 hPa | 0 mm | - | - | - |
| 1777890056 | 8.33° C | 73% | 1003.8 hPa | 0 mm | - | - | - |
| 1777889754 | 7.78° C | 74% | 1003.9 hPa | 0 mm | - | - | - |
* Rain latest hour (hover to see other rain measurements)
** Current wind speed in m/s (hover to see current wind gust speed)